Time;durP1;ratioP1;P1;durP2;ratioP2;P2;SDS_P1;SDS_P2;PMS_P1;PMS_P2;Temp;Humidity;BMP_temperature;BMP_pressure;BME280_temperature;BME280_humidity;BME280_pressure;Samples;Min_cycle;Max_cycle;Signal;HPM_P1;HPM_P2
2022/08/25 07:50:51;;;;;;;;;;;;;;;27.43;60.91;99136.59;5089053;27;1237;-56
2022/08/25 07:53:33;;;;;;;;;;;;;;;27.68;59.20;99142.19;5089296;28;839;-57
2022/08/25 07:56:00;;;;;;;;;;;;;;;27.70;59.73;99139.59;5089382;28;854;-57
2022/08/25 07:58:27;;;;;;;;;;;;;;;27.83;58.74;99139.66;5088846;28;1909;-56
2022/08/25 08:00:54;;;;;;;;;;;;;;;27.84;58.39;99135.50;5088614;28;870;-56
2022/08/25 08:03:21;;;;;;;;;;;;;;;27.68;58.70;99139.34;5088669;28;902;-57
2022/08/25 08:05:47;;;;;;;;;;;;;;;27.81;58.38;99135.81;5086960;28;1323;-56
2022/08/25 08:08:14;;;;;;;;;;;;;;;28.08;57.89;99136.72;5088972;28;859;-57
2022/08/25 08:10:41;;;;;;;;;;;;;;;28.10;57.57;99134.09;5088547;28;854;-56
2022/08/25 08:13:08;;;;;;;;;;;;;;;27.93;58.35;99133.59;5088452;28;839;-57
2022/08/25 08:15:35;;;;;;;;;;;;;;;27.81;58.62;99125.22;5073539;28;1655;-56
2022/08/25 08:18:04;;;;;;;;;;;;;;;27.68;58.32;99133.69;5068046;28;1886;-57
2022/08/25 08:20:32;;;;;;;;;;;;;;;28.01;58.06;99126.75;5066906;28;843;-57
2022/08/25 08:23:00;;;;;;;;;;;;;;;28.40;56.53;99118.88;5067876;28;1131;-57
2022/08/25 08:25:26;;;;;;;;;;;;;;;28.60;56.46;99117.53;5067013;28;792;-56
2022/08/25 08:27:53;;;;;;;;;;;;;;;28.61;55.57;99108.44;5066848;28;820;-57
2022/08/25 08:30:19;;;;;;;;;;;;;;;28.59;55.94;99108.25;5067923;28;832;-56
2022/08/25 08:32:45;;;;;;;;;;;;;;;28.77;55.39;99111.53;5067786;28;808;-57
2022/08/25 08:35:16;;;;;;;;;;;;;;;28.57;55.62;99113.72;5068061;28;860;-57
2022/08/25 08:37:44;;;;;;;;;;;;;;;28.66;55.33;99110.44;5067603;28;910;-57
2022/08/25 08:40:13;;;;;;;;;;;;;;;28.68;55.96;99107.03;5085190;28;1906;-56
2022/08/25 08:42:46;;;;;;;;;;;;;;;28.73;55.68;99091.94;5087868;28;890;-56
2022/08/25 08:45:23;;;;;;;;;;;;;;;28.62;55.07;99095.78;5087409;28;879;-57
2022/08/25 08:48:16;;;;;;;;;;;;;;;28.76;55.07;99102.22;5087842;28;816;-57
2022/08/25 08:50:48;;;;;;;;;;;;;;;28.79;55.05;99097.53;5079690;28;1303;-57
2022/08/25 08:53:24;;;;;;;;;;;;;;;28.98;55.52;99089.66;5074275;28;831;-57
2022/08/25 08:55:56;;;;;;;;;;;;;;;29.86;52.24;99076.09;5072798;28;863;-57
2022/08/25 08:58:41;;;;;;;;;;;;;;;30.41;50.74;99091.63;5074118;28;1914;-57
2022/08/25 09:01:09;;;;;;;;;;;;;;;30.98;49.05;99085.91;5074059;28;878;-57
2022/08/25 09:03:40;;;;;;;;;;;;;;;30.94;48.62;99085.53;5074035;28;839;-57
2022/08/25 09:06:26;;;;;;;;;;;;;;;31.38;48.44;99090.47;5073965;28;871;-57
2022/08/25 09:08:54;;;;;;;;;;;;;;;31.74;48.13;99078.97;5072496;28;1293;-57
2022/08/25 09:11:43;;;;;;;;;;;;;;;31.78;46.39;99078.59;5074102;28;883;-56
2022/08/25 09:17:35;;;;;;;;;;;;;;;32.16;46.48;99058.66;5073867;28;654;-57
2022/08/25 09:20:01;;;;;;;;;;;;;;;32.67;45.43;99060.53;5073637;28;1956;-57
2022/08/25 09:22:47;;;;;;;;;;;;;;;32.55;44.57;99076.56;5072344;28;1231;-57
2022/08/25 09:25:22;;;;;;;;;;;;;;;32.25;44.73;99072.38;5073578;28;917;-56
2022/08/25 09:28:06;;;;;;;;;;;;;;;31.83;45.50;99064.13;5073754;28;812;-57
2022/08/25 09:31:10;;;;;;;;;;;;;;;31.75;46.98;99040.53;5073583;28;847;-57
2022/08/25 09:33:37;;;;;;;;;;;;;;;32.07;46.31;99050.63;5051858;28;1408;-57
2022/08/25 09:48:23;;;;;;;;;;;;;;;31.65;46.39;99033.84;5073850;28;1950;-57
2022/08/25 09:50:58;;;;;;;;;;;;;;;31.46;46.70;99032.06;5071908;28;1491;-57
2022/08/25 09:53:26;;;;;;;;;;;;;;;31.26;47.06;99030.06;5073085;28;823;-56
2022/08/25 09:56:00;;;;;;;;;;;;;;;31.33;47.33;99035.81;5073105;28;905;-57
2022/08/25 09:58:27;;;;;;;;;;;;;;;31.46;46.65;99037.78;5071782;28;1356;-57
2022/08/25 10:01:06;;;;;;;;;;;;;;;31.69;46.38;99032.13;5071612;28;1391;-56
2022/08/25 10:03:34;;;;;;;;;;;;;;;31.87;45.81;99020.91;5072277;28;803;-57
2022/08/25 10:06:05;;;;;;;;;;;;;;;32.19;44.76;99037.50;5073007;28;820;-57
2022/08/25 10:08:39;;;;;;;;;;;;;;;32.19;44.85;99037.50;5071725;28;1981;-57
2022/08/25 10:11:14;;;;;;;;;;;;;;;32.41;44.62;99029.47;5071322;28;1408;-57
2022/08/25 10:13:43;;;;;;;;;;;;;;;32.43;44.54;99021.06;5072644;28;824;-57
2022/08/25 10:16:24;;;;;;;;;;;;;;;32.48;44.15;99025.84;5072506;28;835;-57
2022/08/25 10:19:03;;;;;;;;;;;;;;;32.99;43.02;99029.72;5071258;28;1154;-57
2022/08/25 10:21:29;;;;;;;;;;;;;;;33.12;42.43;99038.84;5073018;28;807;-57
2022/08/25 10:23:56;;;;;;;;;;;;;;;32.99;42.07;99026.84;5073341;28;839;-57
2022/08/25 10:26:31;;;;;;;;;;;;;;;33.35;41.47;99017.91;5072767;28;807;-57
2022/08/25 10:28:58;;;;;;;;;;;;;;;32.97;41.37;99024.59;5072304;28;1940;-57
2022/08/25 10:31:31;;;;;;;;;;;;;;;32.50;42.47;99011.75;5072465;28;854;-57
2022/08/25 10:34:04;;;;;;;;;;;;;;;32.03;43.24;99011.03;5070995;28;1288;-57
2022/08/25 10:36:40;;;;;;;;;;;;;;;31.96;43.13;98994.59;5072119;28;810;-59
2022/08/25 10:39:12;;;;;;;;;;;;;;;32.06;42.32;98994.84;5072196;28;827;-59
2022/08/25 10:41:45;;;;;;;;;;;;;;;32.63;42.23;99014.41;5072198;28;834;-57
2022/08/25 10:45:41;;;;;;;;;;;;;;;33.07;41.04;99008.31;5072031;28;843;-57
2022/08/25 10:47:11;;;;;;;;;;;;;;;33.42;40.10;99014.25;5071947;28;798;-57
2022/08/25 10:49:45;;;;;;;;;;;;;;;33.48;39.35;99029.13;5070382;28;1945;-57
2022/08/25 10:52:17;;;;;;;;;;;;;;;33.39;39.65;99020.38;5071921;28;859;-57
2022/08/25 10:55:01;;;;;;;;;;;;;;;33.83;38.67;99012.09;5072409;28;803;-57
2022/08/25 10:57:39;;;;;;;;;;;;;;;33.60;38.91;99017.22;5071815;28;855;-57
2022/08/25 11:00:23;;;;;;;;;;;;;;;32.59;40.01;99019.75;5071850;28;951;-57
2022/08/25 11:03:14;;;;;;;;;;;;;;;32.28;41.35;99010.41;5071922;28;843;-57
2022/08/25 11:21:06;;;;;;;;;;;;;;;34.85;35.49;98991.25;5072003;28;677;-57
2022/08/25 11:23:32;;;;;;;;;;;;;;;34.21;36.35;98981.59;5071549;28;831;-57
2022/08/25 11:26:26;;;;;;;;;;;;;;;34.10;36.71;98977.84;5070265;28;1321;-58
2022/08/25 11:28:59;;;;;;;;;;;;;;;33.90;36.55;98979.72;5071412;28;1885;-57
2022/08/25 11:31:37;;;;;;;;;;;;;;;34.03;36.86;98972.94;5070178;28;1201;-57
2022/08/25 11:34:09;;;;;;;;;;;;;;;34.45;36.57;98971.41;5071346;28;1266;-58
2022/08/25 11:36:39;;;;;;;;;;;;;;;34.34;36.33;98966.94;5071338;28;886;-58
2022/08/25 11:39:24;;;;;;;;;;;;;;;33.88;36.93;98942.31;5071393;28;864;-58
2022/08/25 11:42:05;;;;;;;;;;;;;;;33.54;37.38;98935.13;5071454;28;823;-58
2022/08/25 11:44:41;;;;;;;;;;;;;;;33.10;37.82;98944.22;5071337;28;832;-58
2022/08/25 11:47:28;;;;;;;;;;;;;;;32.92;38.36;98936.84;5071361;28;827;-57
2022/08/25 11:50:08;;;;;;;;;;;;;;;32.90;38.20;98936.66;5067360;28;1945;-58
2022/08/25 11:52:54;;;;;;;;;;;;;;;32.95;38.61;98950.00;5071410;28;819;-58
2022/08/25 11:55:45;;;;;;;;;;;;;;;32.87;38.49;98952.13;5069970;28;1174;-58
2022/08/25 11:58:28;;;;;;;;;;;;;;;32.56;39.13;98960.81;5071209;28;803;-59
2022/08/25 12:00:56;;;;;;;;;;;;;;;32.37;39.90;98974.75;5070046;28;1384;-59
2022/08/25 12:03:35;;;;;;;;;;;;;;;31.94;39.87;98972.34;5071166;28;874;-59
2022/08/25 12:06:17;;;;;;;;;;;;;;;31.52;40.87;98966.22;5071018;28;870;-59
2022/08/25 12:08:53;;;;;;;;;;;;;;;31.27;41.49;98963.13;5071086;28;1984;-58
2022/08/25 12:11:40;;;;;;;;;;;;;;;31.12;41.24;98963.84;5071037;28;823;-59
2022/08/25 12:14:23;;;;;;;;;;;;;;;30.90;42.12;98965.31;5069742;28;902;-59
2022/08/25 12:16:59;;;;;;;;;;;;;;;30.88;41.81;98954.44;5070975;28;887;-59
2022/08/25 12:19:35;;;;;;;;;;;;;;;30.84;42.21;98956.88;5071025;28;1284;-59
2022/08/25 12:22:02;;;;;;;;;;;;;;;30.79;42.08;98971.28;5069689;28;1351;-59
2022/08/25 12:24:48;;;;;;;;;;;;;;;30.69;42.54;98968.97;5070935;28;840;-59
2022/08/25 12:27:27;;;;;;;;;;;;;;;30.47;42.65;98973.25;5074716;28;859;-59
2022/08/25 12:30:03;;;;;;;;;;;;;;;30.35;42.96;98963.50;5074546;28;1955;-59
2022/08/25 12:32:48;;;;;;;;;;;;;;;30.27;43.22;98982.59;5074627;28;895;-59
2022/08/25 12:35:28;;;;;;;;;;;;;;;29.54;51.13;98993.75;5074535;28;871;-58
2022/08/25 12:37:58;;;;;;;;;;;;;;;28.62;55.85;98996.28;5074453;28;924;-59
2022/08/25 12:40:43;;;;;;;;;;;;;;;28.11;58.00;98996.47;5074440;28;878;-59
2022/08/25 12:43:13;;;;;;;;;;;;;;;27.54;61.85;98995.84;5073104;28;828;-58
2022/08/25 12:45:43;;;;;;;;;;;;;;;27.16;64.54;99001.53;5074619;28;894;-59
2022/08/25 12:48:29;;;;;;;;;;;;;;;26.85;66.44;99015.88;5074476;28;1902;-58
2022/08/25 12:50:59;;;;;;;;;;;;;;;26.71;67.22;99016.31;5074244;28;1274;-58
2022/08/25 12:53:32;;;;;;;;;;;;;;;26.62;67.42;99025.94;5072933;28;1316;-58
2022/08/25 12:56:09;;;;;;;;;;;;;;;26.59;67.37;99027.03;5074180;28;862;-59
2022/08/25 12:58:54;;;;;;;;;;;;;;;26.61;67.22;99030.09;5074073;28;804;-58
2022/08/25 13:01:29;;;;;;;;;;;;;;;26.49;68.13;99026.56;5074077;28;820;-58
2022/08/25 13:04:09;;;;;;;;;;;;;;;26.39;68.78;99025.38;5072668;28;1328;-58
2022/08/25 13:06:42;;;;;;;;;;;;;;;26.38;69.33;99024.63;5074044;28;799;-60
2022/08/25 13:09:27;;;;;;;;;;;;;;;26.45;69.57;99023.25;5074082;28;1993;-60
2022/08/25 13:12:13;;;;;;;;;;;;;;;26.49;69.67;99027.34;5073875;28;835;-60
2022/08/25 13:14:41;;;;;;;;;;;;;;;26.58;69.67;99025.47;5073768;28;839;-61
2022/08/25 13:17:08;;;;;;;;;;;;;;;26.61;69.32;99039.34;5072567;28;1228;-60
2022/08/25 13:19:36;;;;;;;;;;;;;;;26.65;69.57;99036.19;5073706;28;807;-60
2022/08/25 13:22:11;;;;;;;;;;;;;;;26.63;69.93;99028.25;5073670;28;842;-60
2022/08/25 13:24:42;;;;;;;;;;;;;;;26.57;69.91;99021.88;5073706;28;867;-60
2022/08/25 13:27:17;;;;;;;;;;;;;;;26.52;70.86;99021.91;5073630;28;890;-61
2022/08/25 13:29:57;;;;;;;;;;;;;;;26.47;71.00;99012.16;5072277;28;1951;-60
2022/08/25 13:32:27;;;;;;;;;;;;;;;26.37;71.63;99013.81;5073523;28;811;-60
2022/08/25 13:35:07;;;;;;;;;;;;;;;26.38;71.66;99015.38;5072109;28;1209;-60
2022/08/25 13:37:34;;;;;;;;;;;;;;;26.44;72.00;99011.19;5073338;28;808;-60
2022/08/25 13:40:10;;;;;;;;;;;;;;;26.59;71.37;99016.44;5073386;28;819;-60
2022/08/25 13:42:38;;;;;;;;;;;;;;;26.76;71.27;99019.09;5073292;28;866;-60
2022/08/25 13:45:05;;;;;;;;;;;;;;;26.82;71.00;99025.44;5073336;28;834;-60
2022/08/25 13:47:42;;;;;;;;;;;;;;;26.89;70.79;99018.41;5073201;28;836;-60
2022/08/25 13:50:27;;;;;;;;;;;;;;;27.02;70.79;99021.31;5072899;28;1989;-60
2022/08/25 13:52:56;;;;;;;;;;;;;;;27.13;70.30;99023.22;5073463;28;854;-60
2022/08/25 13:55:35;;;;;;;;;;;;;;;27.11;70.45;99019.41;5073034;28;866;-60
2022/08/25 13:58:02;;;;;;;;;;;;;;;27.19;70.27;99026.00;5071754;28;1229;-60
2022/08/25 14:00:33;;;;;;;;;;;;;;;27.26;69.95;99022.56;5072990;28;898;-60
2022/08/25 14:03:01;;;;;;;;;;;;;;;27.36;69.69;99029.38;5072843;28;890;-60
2022/08/25 14:05:32;;;;;;;;;;;;;;;27.39;69.53;99019.78;5071582;28;1339;-60
2022/08/25 14:07:59;;;;;;;;;;;;;;;27.42;69.49;99021.56;5072851;28;946;-60
2022/08/25 14:10:46;;;;;;;;;;;;;;;27.35;69.72;99012.91;5072786;28;1902;-60
2022/08/25 14:13:32;;;;;;;;;;;;;;;27.32;69.85;99014.00;5071472;28;1229;-60
2022/08/25 14:16:16;;;;;;;;;;;;;;;27.40;69.55;99012.81;5071782;28;1100;-60
2022/08/25 14:18:54;;;;;;;;;;;;;;;27.49;69.75;99011.66;5071266;28;1499;-60
2022/08/25 14:21:26;;;;;;;;;;;;;;;27.61;68.85;99004.50;5072599;28;839;-60
2022/08/25 14:23:54;;;;;;;;;;;;;;;27.64;68.82;99003.41;5071223;28;1410;-60
2022/08/25 14:26:21;;;;;;;;;;;;;;;27.67;68.84;99002.34;5072315;28;879;-60
2022/08/25 14:28:48;;;;;;;;;;;;;;;27.66;68.71;99012.16;5072359;28;1918;-60
2022/08/25 14:31:19;;;;;;;;;;;;;;;27.68;68.69;99020.91;5070967;28;1225;-60
2022/08/25 14:33:57;;;;;;;;;;;;;;;27.68;68.95;99014.47;5072267;28;898;-60
2022/08/25 14:36:25;;;;;;;;;;;;;;;27.58;69.41;99011.25;5072189;28;828;-60
2022/08/25 14:38:53;;;;;;;;;;;;;;;27.48;69.30;99008.06;5070894;28;1308;-60
2022/08/25 14:41:21;;;;;;;;;;;;;;;27.35;69.79;99016.50;5072298;28;910;-60
2022/08/25 14:43:48;;;;;;;;;;;;;;;27.27;70.26;99009.94;5072124;28;887;-60
2022/08/25 14:46:19;;;;;;;;;;;;;;;27.19;70.41;99011.81;5070739;28;1221;-60
2022/08/25 14:48:47;;;;;;;;;;;;;;;27.15;70.79;99011.38;5071186;28;1902;-61
2022/08/25 14:51:14;;;;;;;;;;;;;;;27.11;70.88;99011.66;5072045;28;827;-60
2022/08/25 14:53:42;;;;;;;;;;;;;;;27.06;71.55;99016.09;5071887;28;864;-60
2022/08/25 14:56:09;;;;;;;;;;;;;;;27.05;71.30;99008.13;5070586;28;1436;-59
2022/08/25 14:58:36;;;;;;;;;;;;;;;27.10;71.53;99012.97;5071875;28;898;-60
2022/08/25 15:01:04;;;;;;;;;;;;;;;27.09;71.27;99020.69;5071737;28;898;-60
2022/08/25 15:03:35;;;;;;;;;;;;;;;27.07;71.97;99040.31;5071775;28;808;-60
2022/08/25 15:06:02;;;;;;;;;;;;;;;27.07;72.11;99028.97;5072393;28;871;-60
2022/08/25 15:11:15;;;;;;;;;;;;;;;27.02;72.51;99034.75;5071729;28;677;-60
2022/08/25 15:13:45;;;;;;;;;;;;;;;26.87;72.78;99021.00;5071612;28;824;-60
2022/08/25 15:16:20;;;;;;;;;;;;;;;26.74;73.59;99012.41;5072194;28;851;-60
2022/08/25 15:18:47;;;;;;;;;;;;;;;26.67;73.65;99010.94;5071886;28;831;-60
2022/08/25 15:21:14;;;;;;;;;;;;;;;26.57;74.30;98998.44;5070321;28;1233;-60
2022/08/25 15:23:41;;;;;;;;;;;;;;;26.57;74.78;98996.38;5071533;28;811;-60
2022/08/25 15:26:11;;;;;;;;;;;;;;;26.65;74.73;98994.47;5071573;28;862;-60
2022/08/25 15:28:49;;;;;;;;;;;;;;;26.76;74.20;98996.41;5071375;28;1953;-60
2022/08/25 15:31:19;;;;;;;;;;;;;;;26.81;74.45;98992.72;5071584;28;820;-60
2022/08/25 15:33:46;;;;;;;;;;;;;;;26.81;74.30;98992.72;5071710;28;846;-60
2022/08/25 15:36:15;;;;;;;;;;;;;;;26.80;74.67;98994.03;5071401;28;851;-60
2022/08/25 15:38:43;;;;;;;;;;;;;;;26.71;75.02;98997.22;5071517;28;891;-60
2022/08/25 15:41:10;;;;;;;;;;;;;;;26.57;75.37;98998.44;5069999;28;1341;-60
2022/08/25 15:43:38;;;;;;;;;;;;;;;26.39;76.19;98995.00;5070128;28;930;-60
2022/08/25 15:46:06;;;;;;;;;;;;;;;26.18;77.31;98988.28;5071619;28;887;-60
2022/08/25 15:48:34;;;;;;;;;;;;;;;26.01;78.21;98994.09;5071468;28;1881;-60
2022/08/25 15:51:01;;;;;;;;;;;;;;;25.81;78.77;98986.78;5071113;28;1102;-60
2022/08/25 15:53:28;;;;;;;;;;;;;;;25.64;79.64;98979.22;5071277;28;807;-60
2022/08/25 15:55:59;;;;;;;;;;;;;;;25.52;80.30;98989.09;5071261;28;874;-60
2022/08/25 15:58:26;;;;;;;;;;;;;;;25.37;81.02;98972.50;5069898;28;1301;-60
2022/08/25 16:00:53;;;;;;;;;;;;;;;25.27;81.64;98969.22;5072813;28;815;-60
2022/08/25 16:03:20;;;;;;;;;;;;;;;25.15;82.52;98972.59;5075190;28;914;-60
2022/08/25 16:05:47;;;;;;;;;;;;;;;25.10;83.12;98979.06;5073889;28;1265;-60
2022/08/25 16:08:14;;;;;;;;;;;;;;;25.04;83.44;98979.88;5075022;28;1910;-60
2022/08/25 16:10:42;;;;;;;;;;;;;;;25.01;83.92;98972.44;5075072;28;819;-60
2022/08/25 16:13:09;;;;;;;;;;;;;;;25.01;82.93;98978.09;5074972;28;879;-60
2022/08/25 16:15:36;;;;;;;;;;;;;;;25.19;73.32;98975.94;5074934;28;910;-60
2022/08/25 16:18:04;;;;;;;;;;;;;;;25.37;69.18;98963.22;5074898;28;936;-59
2022/08/25 16:20:32;;;;;;;;;;;;;;;25.54;61.09;98968.75;5074833;28;884;-60
2022/08/25 16:23:01;;;;;;;;;;;;;;;25.75;57.50;98969.09;5074829;28;859;-59
2022/08/25 16:25:29;;;;;;;;;;;;;;;25.90;51.46;98960.25;5075045;28;819;-60
2022/08/25 16:27:56;;;;;;;;;;;;;;;26.11;49.29;98958.47;5075444;28;791;-60
2022/08/25 16:30:23;;;;;;;;;;;;;;;26.23;47.41;98951.41;5073211;28;1953;-60
2022/08/25 16:32:50;;;;;;;;;;;;;;;26.33;45.43;98956.69;5075336;28;827;-60
2022/08/25 16:35:17;;;;;;;;;;;;;;;26.38;44.13;98961.56;5073323;28;1407;-60
2022/08/25 16:37:44;;;;;;;;;;;;;;;26.42;43.24;98954.28;5073578;28;1233;-60
2022/08/25 16:40:12;;;;;;;;;;;;;;;26.39;43.63;98958.16;5074521;28;856;-60
2022/08/25 16:42:39;;;;;;;;;;;;;;;26.38;42.79;98950.22;5074750;28;827;-60
2022/08/25 16:45:06;;;;;;;;;;;;;;;26.36;43.27;98958.47;5073314;28;1467;-59
2022/08/25 16:47:36;;;;;;;;;;;;;;;26.28;43.12;98953.41;5074959;28;776;-60
2022/08/25 16:50:04;;;;;;;;;;;;;;;26.22;42.49;98960.41;5074171;28;1952;-60
2022/08/25 16:55:16;;;;;;;;;;;;;;;26.19;42.40;98953.75;5074683;28;685;-60
2022/08/25 16:57:44;;;;;;;;;;;;;;;26.16;42.22;98948.38;5074269;28;883;-59
2022/08/25 17:00:12;;;;;;;;;;;;;;;26.11;41.92;98941.50;5072759;28;1328;-60
2022/08/25 17:02:40;;;;;;;;;;;;;;;26.13;41.50;98932.47;5074078;28;826;-60
2022/08/25 17:05:07;;;;;;;;;;;;;;;26.13;41.73;98935.31;5074043;28;890;-60
2022/08/25 17:07:35;;;;;;;;;;;;;;;26.10;41.59;98928.66;5074088;28;862;-60
2022/08/25 17:10:06;;;;;;;;;;;;;;;26.05;41.74;98935.13;5074184;28;1914;-60
2022/08/25 17:12:33;;;;;;;;;;;;;;;25.99;41.43;98931.56;5073508;28;799;-60
2022/08/25 17:15:00;;;;;;;;;;;;;;;25.95;40.97;98931.88;5072583;28;890;-60
2022/08/25 17:17:26;;;;;;;;;;;;;;;25.97;40.71;98934.19;5073837;28;854;-60
2022/08/25 17:19:53;;;;;;;;;;;;;;;25.94;40.42;98926.75;5073981;28;823;-60
2022/08/25 17:22:21;;;;;;;;;;;;;;;25.84;40.62;98927.09;5073685;28;855;-60
2022/08/25 17:24:48;;;;;;;;;;;;;;;25.73;40.78;98929.25;5072467;28;1264;-60
2022/08/25 17:27:15;;;;;;;;;;;;;;;25.54;41.34;98932.78;5073596;28;860;-60
2022/08/25 17:29:42;;;;;;;;;;;;;;;25.45;41.33;98933.09;5073478;28;1885;-60
2022/08/25 17:32:09;;;;;;;;;;;;;;;25.36;41.35;98922.88;5072193;28;1337;-60
2022/08/25 17:34:36;;;;;;;;;;;;;;;25.19;41.85;98925.03;5073550;28;803;-60
2022/08/25 17:37:04;;;;;;;;;;;;;;;25.04;42.03;98926.16;5073746;28;828;-60
2022/08/25 17:39:31;;;;;;;;;;;;;;;24.97;42.07;98928.78;5073394;28;828;-60
2022/08/25 17:41:57;;;;;;;;;;;;;;;25.10;41.08;98933.84;5073384;28;882;-60
2022/08/25 17:44:24;;;;;;;;;;;;;;;25.30;40.87;98941.94;5073324;28;886;-60
2022/08/25 17:46:51;;;;;;;;;;;;;;;25.39;40.32;98950.13;5071980;28;1210;-60
2022/08/25 17:49:18;;;;;;;;;;;;;;;25.44;40.04;98957.03;5073181;28;1889;-60
2022/08/25 17:51:45;;;;;;;;;;;;;;;25.44;39.93;98966.25;5071884;28;1367;-60
2022/08/25 17:54:12;;;;;;;;;;;;;;;25.40;40.20;98974.25;5073083;28;883;-60
2022/08/25 17:56:40;;;;;;;;;;;;;;;25.43;39.90;98976.06;5071764;28;1315;-60
2022/08/25 17:59:07;;;;;;;;;;;;;;;25.44;40.07;98974.00;5071673;28;1221;-60
2022/08/25 18:01:35;;;;;;;;;;;;;;;25.39;40.27;98981.22;5071622;28;1236;-60
2022/08/25 18:04:05;;;;;;;;;;;;;;;25.44;39.77;98983.25;5072962;28;866;-60
2022/08/25 18:06:32;;;;;;;;;;;;;;;25.53;39.35;98982.13;5072802;28;1135;-59
2022/08/25 18:09:00;;;;;;;;;;;;;;;25.63;39.39;98985.41;5071445;28;1914;-59
2022/08/25 18:11:27;;;;;;;;;;;;;;;25.67;39.30;98992.31;5072791;28;828;-60
2022/08/25 18:13:54;;;;;;;;;;;;;;;25.76;39.11;98993.28;5072913;28;832;-60
2022/08/25 18:16:30;;;;;;;;;;;;;;;25.83;39.14;98987.03;5071392;28;1339;-59
2022/08/25 18:18:57;;;;;;;;;;;;;;;25.86;38.94;98997.28;5072626;28;855;-59
2022/08/25 18:24:38;;;;;;;;;;;;;;;25.78;39.32;99008.44;5029676;28;1328;-60
2022/08/25 18:27:05;;;;;;;;;;;;;;;25.66;39.78;99013.41;5030385;28;836;-59
2022/08/25 18:29:32;;;;;;;;;;;;;;;25.56;40.14;99011.44;5030271;28;1886;-60
2022/08/25 18:31:59;;;;;;;;;;;;;;;25.43;40.64;99012.81;5013748;28;873;-60
2022/08/25 18:34:26;;;;;;;;;;;;;;;25.30;40.83;99009.81;5030307;28;1367;-59
2022/08/25 18:36:53;;;;;;;;;;;;;;;25.12;41.36;99008.34;5013638;28;849;-60
2022/08/25 18:42:19;;;;;;;;;;;;;;;24.53;43.02;99004.75;5008472;28;1284;-60
2022/08/25 18:44:45;;;;;;;;;;;;;;;24.37;43.22;99005.56;5030190;28;863;-59
2022/08/25 18:47:12;;;;;;;;;;;;;;;24.18;44.00;99020.22;5030050;28;1021;-60
2022/08/25 18:49:39;;;;;;;;;;;;;;;24.06;44.48;99024.34;5013017;28;1981;-59
2022/08/25 18:52:06;;;;;;;;;;;;;;;23.99;44.81;99016.41;5013449;28;1325;-59
2022/08/25 18:54:33;;;;;;;;;;;;;;;23.89;45.19;99012.31;5029994;28;954;-60
2022/08/25 18:57:00;;;;;;;;;;;;;;;23.71;46.01;99017.16;5029919;28;817;-60
2022/08/25 18:59:26;;;;;;;;;;;;;;;23.42;46.83;99009.94;5029759;28;841;-59
2022/08/25 19:01:53;;;;;;;;;;;;;;;23.19;47.50;99009.13;5062008;28;1037;-59
2022/08/25 19:04:20;;;;;;;;;;;;;;;22.96;48.26;99002.66;5070610;28;1225;-60
2022/08/25 19:06:46;;;;;;;;;;;;;;;22.73;49.27;99004.63;5070405;28;1356;-60
2022/08/25 19:09:13;;;;;;;;;;;;;;;22.50;49.84;99009.38;5070424;28;2026;-60
2022/08/25 19:11:40;;;;;;;;;;;;;;;22.29;50.80;99006.69;5070391;28;1205;-60
2022/08/25 19:14:08;;;;;;;;;;;;;;;22.19;51.50;99014.53;5071657;28;835;-59
2022/08/25 19:16:40;;;;;;;;;;;;;;;22.14;52.01;99009.63;5070362;28;1268;-60
2022/08/25 19:19:08;;;;;;;;;;;;;;;22.11;52.05;99012.69;5071881;28;839;-60
2022/08/25 19:21:34;;;;;;;;;;;;;;;22.01;51.98;99009.28;5070312;28;1395;-60
2022/08/25 19:24:02;;;;;;;;;;;;;;;21.92;52.71;99015.13;5071728;28;866;-59
2022/08/25 19:26:30;;;;;;;;;;;;;;;21.84;53.40;99011.97;5071641;28;993;-60
2022/08/25 19:28:57;;;;;;;;;;;;;;;21.81;53.78;99007.38;5069994;28;1886;-60
2022/08/25 19:31:24;;;;;;;;;;;;;;;21.81;54.34;99015.81;5071572;28;819;-60
2022/08/25 19:33:52;;;;;;;;;;;;;;;21.63;55.03;99011.28;5071239;28;831;-60
2022/08/25 19:36:21;;;;;;;;;;;;;;;21.72;56.12;99005.50;5071525;28;890;-60
2022/08/25 19:38:48;;;;;;;;;;;;;;;21.69;55.84;99011.34;5070088;28;1316;-60
2022/08/25 19:41:15;;;;;;;;;;;;;;;21.51;56.72;99015.28;5071422;28;949;-60
2022/08/25 19:43:45;;;;;;;;;;;;;;;21.33;57.27;99013.53;5070069;28;1341;-60
2022/08/25 19:46:12;;;;;;;;;;;;;;;21.13;58.46;99023.56;5070078;28;1309;-60
2022/08/25 19:48:39;;;;;;;;;;;;;;;20.91;59.35;99024.09;5071150;28;1889;-60
2022/08/25 19:51:06;;;;;;;;;;;;;;;20.80;59.92;99013.50;5069799;28;1427;-59
2022/08/25 19:53:33;;;;;;;;;;;;;;;20.76;60.80;99012.13;5071189;28;875;-60
2022/08/25 19:56:00;;;;;;;;;;;;;;;20.69;61.47;99015.38;5069975;28;1305;-60
2022/08/25 19:58:27;;;;;;;;;;;;;;;20.60;61.96;99003.03;5071096;28;857;-59
2022/08/25 20:01:00;;;;;;;;;;;;;;;20.55;62.33;99000.13;5071245;28;816;-60
2022/08/25 20:03:27;;;;;;;;;;;;;;;20.54;62.99;98998.56;5069904;28;1321;-60
2022/08/25 20:05:55;;;;;;;;;;;;;;;20.60;63.82;99003.03;5069882;28;1332;-60
2022/08/25 20:08:22;;;;;;;;;;;;;;;20.79;65.20;98997.13;5069830;28;1297;-60
2022/08/25 20:10:51;;;;;;;;;;;;;;;21.18;65.36;98993.97;5069724;28;1182;-60
2022/08/25 20:13:18;;;;;;;;;;;;;;;21.49;65.08;98989.72;5069834;28;1328;-60
2022/08/25 20:15:45;;;;;;;;;;;;;;;21.53;64.92;98995.84;5069746;28;1331;-60
2022/08/25 20:18:12;;;;;;;;;;;;;;;21.45;64.53;98994.78;5069736;28;1215;-60
2022/08/25 20:20:39;;;;;;;;;;;;;;;21.38;64.69;98993.94;5070959;28;844;-60
2022/08/25 20:25:51;;;;;;;;;;;;;;;21.58;66.36;98981.88;5071105;28;675;-60
2022/08/25 20:28:18;;;;;;;;;;;;;;;21.79;66.56;98985.34;5070981;28;839;-60
2022/08/25 20:30:45;;;;;;;;;;;;;;;21.96;65.65;98979.09;5069515;28;1946;-60
2022/08/25 20:33:12;;;;;;;;;;;;;;;21.92;64.85;98970.88;5070910;28;875;-60
2022/08/25 20:35:40;;;;;;;;;;;;;;;21.80;65.38;98974.88;5069500;28;1277;-60
2022/08/25 20:38:07;;;;;;;;;;;;;;;21.74;65.28;98955.16;5070866;28;875;-60
2022/08/25 20:40:33;;;;;;;;;;;;;;;21.69;65.59;98955.88;5070808;28;824;-60
2022/08/25 20:43:03;;;;;;;;;;;;;;;21.65;65.52;98952.50;5069485;28;1320;-60
2022/08/25 20:45:30;;;;;;;;;;;;;;;21.62;65.36;98959.16;5069535;28;1340;-60
2022/08/25 20:47:57;;;;;;;;;;;;;;;21.60;65.42;98968.06;5072582;28;1494;-60
2022/08/25 20:50:25;;;;;;;;;;;;;;;21.60;65.38;98975.75;5074019;28;1944;-60
2022/08/25 20:52:55;;;;;;;;;;;;;;;21.59;66.42;98968.56;5074338;28;819;-60
2022/08/25 20:55:23;;;;;;;;;;;;;;;21.69;67.00;98966.34;5072913;28;1257;-60
2022/08/25 20:57:51;;;;;;;;;;;;;;;21.80;67.23;98960.81;5074263;28;859;-60
2022/08/25 21:00:18;;;;;;;;;;;;;;;21.85;67.26;98951.66;5074155;28;857;-60
2022/08/25 21:02:45;;;;;;;;;;;;;;;21.88;67.33;98961.91;5072875;28;1344;-60
2022/08/25 21:05:12;;;;;;;;;;;;;;;21.88;67.28;98964.69;5072769;28;1213;-60
2022/08/25 21:07:40;;;;;;;;;;;;;;;21.91;67.69;98966.53;5072752;28;1233;-60
2022/08/25 21:10:12;;;;;;;;;;;;;;;21.97;67.96;98952.47;5073953;28;1898;-60
2022/08/25 21:12:43;;;;;;;;;;;;;;;22.03;68.22;98958.91;5072593;28;1409;-60
2022/08/25 21:15:32;;;;;;;;;;;;;;;22.05;68.10;98953.56;5073905;28;851;-60
2022/08/25 21:18:31;;;;;;;;;;;;;;;22.03;68.74;98970.94;5053826;28;855;-60
2022/08/25 21:24:10;;;;;;;;;;;;;;;22.11;69.31;98974.06;5053607;28;1304;-60
2022/08/25 21:26:52;;;;;;;;;;;;;;;22.09;69.80;98975.84;5053477;28;1184;-59
2022/08/25 21:29:47;;;;;;;;;;;;;;;22.09;69.50;98973.81;5053721;28;1893;-59
2022/08/25 21:32:14;;;;;;;;;;;;;;;22.07;69.62;98972.75;5053116;28;951;-60
2022/08/25 21:34:54;;;;;;;;;;;;;;;22.06;69.81;98968.41;5053548;28;883;-60
2022/08/25 21:37:46;;;;;;;;;;;;;;;22.05;69.45;98958.44;5053708;28;892;-60
2022/08/25 21:40:17;;;;;;;;;;;;;;;22.04;69.53;98954.84;5052103;28;1277;-60
2022/08/25 21:42:43;;;;;;;;;;;;;;;22.14;69.30;98958.22;5053402;28;862;-60
2022/08/25 21:45:23;;;;;;;;;;;;;;;22.17;69.04;98958.00;5053406;28;808;-60
2022/08/25 21:47:49;;;;;;;;;;;;;;;22.18;69.20;98970.78;5053872;28;824;-60
2022/08/25 21:50:19;;;;;;;;;;;;;;;22.16;69.29;98976.13;5039314;28;1953;-59
2022/08/25 21:52:46;;;;;;;;;;;;;;;22.22;69.66;98979.78;5053429;28;882;-60
2022/08/25 21:55:16;;;;;;;;;;;;;;;22.34;69.13;98985.47;5053333;28;863;-60
2022/08/25 21:57:53;;;;;;;;;;;;;;;22.39;68.89;98985.50;5053437;28;824;-60
2022/08/25 22:00:21;;;;;;;;;;;;;;;22.43;69.16;98988.09;5053158;28;888;-59
2022/08/25 22:02:48;;;;;;;;;;;;;;;22.46;68.82;98987.06;5052982;28;867;-60